Parrs Mill, Pennsylvania
Current Conditions -  °F | °C
As of 2:15 PM on Friday 21 Nov 2014 (Local Time) from KHZL Reporting Station
Broken Clouds Broken Clouds  
Wind Chill: 24°   Ceiling: 5000
Heat Index: 32°   Visibility: 10mi
Dew Point:   Wind: 10mph
Humidity: 38%   Direction: 280°W
Pressure: 30.31"   Gusts: 17mph
Location:  40.8983°N, 76.4239°W
Report Text: KHZL 211915Z AUTO 28009G15KT 10SM BKN050 BKN055 00/M13 A3031 RMK AO2
Loading
Personal Weather Stations






























Interactive Weather Map New forecast layout! Learn more

10-Day Weather Forecast

Advertisements
Track Severe Weather on mobile